メインページ
METAR-TAF:

METAR-TAF

空港 :

ザウジ, マヨット

緯度: 12-48S, 経度: 045-17E, 海抜: 8m

現時点の気象観測

当レポートは10分前の06:30(UTC)に作成
南東の風 16kt
気温 29°C
湿度 55%
気圧 1017 hPa
視程10km以上
1,500メートル以下は雲なし、積乱雲なし

METAR: FMCZ 280630Z AUTO 14016KT CAVOK 29/19 Q1017 TEMPO 4500 -SHRA SCT080TCU

時間: 09:40 (06:40 UTC)

予報

当レポートは1時間40分前の05:00(UTC)に作成
予報は28日の 06時(UTC)から 29日の 06時(UTC)まで有効
東/南東の風 17kt
視程10km以上
高度3600ftの雲はほとんどない
高度5600ftの雲は散在している
高度7000ftの千切れ雲あり
確率 30% :
28日の 06時(UTC)から 28日の 09時(UTC)まで一時的に
視程: 4500m
高度8000ftの雲は散在している, 塔状積雲.
弱いにわか雨
28日の 17時(UTC)から 28日の 19時(UTC)まで徐々に
南西の風 8kt
28日の 21時(UTC)から 28日の 23時(UTC)まで徐々に
の風 20kt

TAF: FMCZ 280500Z 2806/2906 12017KT 9999 FEW036 SCT056 BKN070 PROB30 TEMPO 2806/2809 4500 -SHRA SCT080TCU BECMG 2817/2819 22008KT BECMG 2821/2823 19020KT

4,000以上の空港の気象観測と天気予報(METAR報とTAF報)

利用可能な観測所は地図上に黄色い丸と赤い丸で示す。

丸の上にカーソルを重ねると観測所名を参照できる。

次にクリックすると気象観測と天気予報を参照できる。

マップの切り替え:黒色「×」印の緑ボタンをクリックして拡大、「-」印の緑ボタンをクリックして縮小、緑色の三角印をクリックして隣りの地図に切り替え


METAR-TAF: